sensor_id;sensor_type;location;lat;lon;timestamp;pressure;altitude;pressure_sealevel;temperature;humidity
49945;BME280;35838;49.134;9.212;2023-04-08T00:00:04;100213.84;;;9.45;78.91
49945;BME280;35838;49.134;9.212;2023-04-08T00:01:38;100206.94;;;9.44;78.61
49945;BME280;35838;49.134;9.212;2023-04-08T00:03:12;100212.97;;;9.44;78.19
49945;BME280;35838;49.134;9.212;2023-04-08T00:04:43;100212.97;;;9.44;77.67
49945;BME280;35838;49.134;9.212;2023-04-08T00:06:16;100209.53;;;9.42;77.74
49945;BME280;35838;49.134;9.212;2023-04-08T00:07:50;100212.09;;;9.37;77.37
49945;BME280;35838;49.134;9.212;2023-04-08T00:09:21;100209.47;;;9.36;77.31
49945;BME280;35838;49.134;9.212;2023-04-08T00:10:55;100210.25;;;9.21;77.21
49945;BME280;35838;49.134;9.212;2023-04-08T00:12:28;100205.91;;;9.17;77.41
49945;BME280;35838;49.134;9.212;2023-04-08T00:14:04;100203.31;;;9.17;77.48
49945;BME280;35838;49.134;9.212;2023-04-08T00:15:38;100204.16;;;9.14;77.27
49945;BME280;35838;49.134;9.212;2023-04-08T00:17:09;100207.56;;;9.07;77.30
49945;BME280;35838;49.134;9.212;2023-04-08T00:18:43;100210.09;;;9.01;77.43
49945;BME280;35838;49.134;9.212;2023-04-08T00:20:16;100213.56;;;9.01;77.53
49945;BME280;35838;49.134;9.212;2023-04-08T00:21:50;100213.50;;;8.93;77.87
49945;BME280;35838;49.134;9.212;2023-04-08T00:23:24;100211.81;;;8.97;77.62
49945;BME280;35838;49.134;9.212;2023-04-08T00:24:56;100219.59;;;8.99;78.07
49945;BME280;35838;49.134;9.212;2023-04-08T00:26:29;100223.06;;;9.02;78.18
49945;BME280;35838;49.134;9.212;2023-04-08T00:28:03;100215.28;;;8.99;77.46
49945;BME280;35838;49.134;9.212;2023-04-08T00:29:39;100217.78;;;8.91;77.88
49945;BME280;35838;49.134;9.212;2023-04-08T00:31:13;100213.50;;;8.95;77.95
49945;BME280;35838;49.134;9.212;2023-04-08T00:32:46;100208.28;;;8.89;77.92
49945;BME280;35838;49.134;9.212;2023-04-08T00:34:20;100216.97;;;8.97;78.05
49945;BME280;35838;49.134;9.212;2023-04-08T00:35:53;100214.44;;;9.00;77.60
49945;BME280;35838;49.134;9.212;2023-04-08T00:37:27;100210.06;;;8.93;77.59
49945;BME280;35838;49.134;9.212;2023-04-08T00:39:01;100208.28;;;8.86;77.82
49945;BME280;35838;49.134;9.212;2023-04-08T00:40:36;100210.84;;;8.84;78.05
49945;BME280;35838;49.134;9.212;2023-04-08T00:42:09;100224.63;;;8.82;78.21
49945;BME280;35838;49.134;9.212;2023-04-08T00:43:43;100212.56;;;8.84;78.46
49945;BME280;35838;49.134;9.212;2023-04-08T00:45:19;100214.34;;;8.89;78.36
49945;BME280;35838;49.134;9.212;2023-04-08T00:46:53;100214.34;;;8.89;78.28
49945;BME280;35838;49.134;9.212;2023-04-08T00:48:24;100215.16;;;8.87;78.23
49945;BME280;35838;49.134;9.212;2023-04-08T00:49:58;100226.41;;;8.87;78.11
49945;BME280;35838;49.134;9.212;2023-04-08T00:51:32;100225.53;;;8.84;78.22
49945;BME280;35838;49.134;9.212;2023-04-08T00:53:06;100221.22;;;8.89;78.05
49945;BME280;35838;49.134;9.212;2023-04-08T00:54:40;100227.25;;;8.85;77.78
49945;BME280;35838;49.134;9.212;2023-04-08T00:56:14;100228.88;;;8.72;78.02
49945;BME280;35838;49.134;9.212;2023-04-08T00:57:47;100228.03;;;8.77;78.12
49945;BME280;35838;49.134;9.212;2023-04-08T00:59:21;100234.13;;;8.83;78.02
49945;BME280;35838;49.134;9.212;2023-04-08T01:01:00;100229.00;;;8.86;77.95
49945;BME280;35838;49.134;9.212;2023-04-08T01:02:38;100231.59;;;8.86;78.11
49945;BME280;35838;49.134;9.212;2023-04-08T01:04:16;100235.03;;;8.85;78.11
49945;BME280;35838;49.134;9.212;2023-04-08T01:05:53;100236.72;;;8.84;78.41
49945;BME280;35838;49.134;9.212;2023-04-08T01:07:30;100229.81;;;8.82;78.32
49945;BME280;35838;49.134;9.212;2023-04-08T01:09:04;100236.72;;;8.83;78.35
49945;BME280;35838;49.134;9.212;2023-04-08T01:10:38;100235.03;;;8.88;78.68
49945;BME280;35838;49.134;9.212;2023-04-08T01:12:17;100223.81;;;8.87;78.26
49945;BME280;35838;49.134;9.212;2023-04-08T01:13:48;100231.59;;;8.86;78.20
49945;BME280;35838;49.134;9.212;2023-04-08T01:15:25;100229.88;;;8.89;78.15
49945;BME280;35838;49.134;9.212;2023-04-08T01:17:01;100227.34;;;8.94;78.09
49945;BME280;35838;49.134;9.212;2023-04-08T01:18:36;100235.06;;;8.89;77.99
49945;BME280;35838;49.134;9.212;2023-04-08T01:20:11;100240.75;;;8.50;79.64
49945;BME280;35838;49.134;9.212;2023-04-08T01:21:43;100240.72;;;8.48;80.56
49945;BME280;35838;49.134;9.212;2023-04-08T01:23:19;100244.84;;;8.32;81.26
49945;BME280;35838;49.134;9.212;2023-04-08T01:24:56;100249.13;;;8.33;81.91
49945;BME280;35838;49.134;9.212;2023-04-08T01:26:34;100247.38;;;8.29;82.11
49945;BME280;35838;49.134;9.212;2023-04-08T01:28:06;100248.25;;;8.28;82.73
49945;BME280;35838;49.134;9.212;2023-04-08T01:29:41;100249.19;;;8.35;82.71
49945;BME280;35838;49.134;9.212;2023-04-08T01:31:15;100242.34;;;8.41;82.54
49945;BME280;35838;49.134;9.212;2023-04-08T01:32:50;100243.22;;;8.43;82.37
49945;BME280;35838;49.134;9.212;2023-04-08T01:34:21;100245.84;;;8.46;82.14
49945;BME280;35838;49.134;9.212;2023-04-08T01:35:56;100238.94;;;8.45;81.88
49945;BME280;35838;49.134;9.212;2023-04-08T01:37:31;100245.84;;;8.46;82.11
49945;BME280;35838;49.134;9.212;2023-04-08T01:39:05;100241.47;;;8.39;82.09
49945;BME280;35838;49.134;9.212;2023-04-08T01:40:39;100246.59;;;8.38;82.53
49945;BME280;35838;49.134;9.212;2023-04-08T01:42:15;100247.53;;;8.41;82.57
49945;BME280;35838;49.134;9.212;2023-04-08T01:45:22;100250.22;;;8.48;83.13
49945;BME280;35838;49.134;9.212;2023-04-08T01:46:56;100247.63;;;8.48;83.12
49945;BME280;35838;49.134;9.212;2023-04-08T01:48:30;100251.09;;;8.50;83.31
49945;BME280;35838;49.134;9.212;2023-04-08T01:50:04;100255.25;;;8.37;83.81
49945;BME280;35838;49.134;9.212;2023-04-08T01:51:38;100250.97;;;8.43;84.21
49945;BME280;35838;49.134;9.212;2023-04-08T01:53:13;100252.72;;;8.43;84.34
49945;BME280;35838;49.134;9.212;2023-04-08T01:54:44;100257.13;;;8.49;84.40
49945;BME280;35838;49.134;9.212;2023-04-08T01:56:18;100254.53;;;8.50;84.19
49945;BME280;35838;49.134;9.212;2023-04-08T01:57:57;100263.19;;;8.54;84.12
49945;BME280;35838;49.134;9.212;2023-04-08T01:59:30;100258.03;;;8.54;84.20
49945;BME280;35838;49.134;9.212;2023-04-08T02:01:09;100258.94;;;8.59;83.88
49945;BME280;35838;49.134;9.212;2023-04-08T02:02:43;100258.06;;;8.57;83.83
49945;BME280;35838;49.134;9.212;2023-04-08T02:04:16;100259.72;;;8.52;84.17
49945;BME280;35838;49.134;9.212;2023-04-08T02:05:50;100259.72;;;8.52;84.21
49945;BME280;35838;49.134;9.212;2023-04-08T02:07:21;100256.28;;;8.53;84.32
49945;BME280;35838;49.134;9.212;2023-04-08T02:08:55;100257.16;;;8.55;84.25
49945;BME280;35838;49.134;9.212;2023-04-08T02:10:26;100266.63;;;8.53;84.47
49945;BME280;35838;49.134;9.212;2023-04-08T02:12:00;100261.50;;;8.57;84.23
49945;BME280;35838;49.134;9.212;2023-04-08T02:13:34;100260.59;;;8.54;84.18
49945;BME280;35838;49.134;9.212;2023-04-08T02:15:08;100254.59;;;8.56;84.26
49945;BME280;35838;49.134;9.212;2023-04-08T02:16:43;100261.38;;;8.46;84.26
49945;BME280;35838;49.134;9.212;2023-04-08T02:18:20;100266.44;;;8.36;84.48
49945;BME280;35838;49.134;9.212;2023-04-08T02:19:56;100268.13;;;8.35;84.72
49945;BME280;35838;49.134;9.212;2023-04-08T02:21:32;100268.97;;;8.31;84.74
49945;BME280;35838;49.134;9.212;2023-04-08T02:23:06;100269.84;;;8.33;84.82
49945;BME280;35838;49.134;9.212;2023-04-08T02:24:41;100267.97;;;8.21;85.54
49945;BME280;35838;49.134;9.212;2023-04-08T02:26:15;100272.25;;;8.18;85.75
49945;BME280;35838;49.134;9.212;2023-04-08T02:27:48;100274.06;;;8.25;85.74
49945;BME280;35838;49.134;9.212;2023-04-08T02:29:25;100275.63;;;8.09;86.15
49945;BME280;35838;49.134;9.212;2023-04-08T02:30:56;100274.53;;;7.93;86.40
49945;BME280;35838;49.134;9.212;2023-04-08T02:32:32;100282.19;;;7.83;86.92
49945;BME280;35838;49.134;9.212;2023-04-08T02:34:04;100279.47;;;7.73;87.53
49945;BME280;35838;49.134;9.212;2023-04-08T02:35:39;100282.94;;;7.75;88.25
49945;BME280;35838;49.134;9.212;2023-04-08T02:37:13;100282.78;;;7.64;88.64
49945;BME280;35838;49.134;9.212;2023-04-08T02:38:47;100283.59;;;7.61;88.91
49945;BME280;35838;49.134;9.212;2023-04-08T02:40:22;100289.59;;;7.59;89.35
49945;BME280;35838;49.134;9.212;2023-04-08T02:41:54;100283.53;;;7.58;89.43
49945;BME280;35838;49.134;9.212;2023-04-08T02:43:27;100291.53;;;7.75;89.52
49945;BME280;35838;49.134;9.212;2023-04-08T02:45:05;100283.78;;;7.75;89.33
49945;BME280;35838;49.134;9.212;2023-04-08T02:46:38;100286.38;;;7.75;89.07
49945;BME280;35838;49.134;9.212;2023-04-08T02:48:12;100288.13;;;7.76;88.91
49945;BME280;35838;49.134;9.212;2023-04-08T02:49:46;100283.13;;;7.89;88.57
49945;BME280;35838;49.134;9.212;2023-04-08T02:51:22;100286.63;;;7.94;88.36
49945;BME280;35838;49.134;9.212;2023-04-08T02:52:58;100285.72;;;7.90;88.07
49945;BME280;35838;49.134;9.212;2023-04-08T02:54:32;100285.72;;;7.90;87.70
49945;BME280;35838;49.134;9.212;2023-04-08T02:56:08;100283.97;;;7.88;87.81
49945;BME280;35838;49.134;9.212;2023-04-08T02:57:42;100287.50;;;7.96;87.37
49945;BME280;35838;49.134;9.212;2023-04-08T02:59:13;100280.53;;;7.89;87.31
49945;BME280;35838;49.134;9.212;2023-04-08T03:00:49;100280.50;;;7.87;87.01
49945;BME280;35838;49.134;9.212;2023-04-08T03:02:23;100287.34;;;7.82;87.28
49945;BME280;35838;49.134;9.212;2023-04-08T03:03:56;100280.41;;;7.79;87.27
49945;BME280;35838;49.134;9.212;2023-04-08T03:05:30;100289.88;;;7.80;87.13
49945;BME280;35838;49.134;9.212;2023-04-08T03:07:04;100287.28;;;7.77;87.13
49945;BME280;35838;49.134;9.212;2023-04-08T03:08:38;100286.38;;;7.75;87.44
49945;BME280;35838;49.134;9.212;2023-04-08T07:45:19;100396.59;;;9.07;78.06
49945;BME280;35838;49.134;9.212;2023-04-08T07:46:53;100401.03;;;9.19;77.93
49945;BME280;35838;49.134;9.212;2023-04-08T07:48:27;100400.19;;;9.23;77.87
49945;BME280;35838;49.134;9.212;2023-04-08T07:50:00;100393.34;;;9.30;77.84
49945;BME280;35838;49.134;9.212;2023-04-08T07:51:34;100397.72;;;9.37;77.10
49945;BME280;35838;49.134;9.212;2023-04-08T07:53:07;100395.66;;;9.02;76.47
49945;BME280;35838;49.134;9.212;2023-04-08T07:54:41;100394.00;;;9.08;76.94
49945;BME280;35838;49.134;9.212;2023-04-08T07:56:15;100400.13;;;9.17;76.99
49945;BME280;35838;49.134;9.212;2023-04-08T07:57:48;100400.25;;;9.29;76.75
49945;BME280;35838;49.134;9.212;2023-04-08T07:59:22;100401.16;;;9.36;76.13
49945;BME280;35838;49.134;9.212;2023-04-08T08:00:58;100396.91;;;9.43;75.75
49945;BME280;35838;49.134;9.212;2023-04-08T08:02:32;100393.53;;;9.53;75.55
49945;BME280;35838;49.134;9.212;2023-04-08T08:04:06;100395.31;;;9.60;74.04
49945;BME280;35838;49.134;9.212;2023-04-08T08:05:40;100397.88;;;9.55;73.17
49945;BME280;35838;49.134;9.212;2023-04-08T08:07:13;100395.28;;;9.54;72.87
49945;BME280;35838;49.134;9.212;2023-04-08T08:08:47;100393.63;;;9.62;73.74
49945;BME280;35838;49.134;9.212;2023-04-08T08:10:20;100399.69;;;9.66;73.00
49945;BME280;35838;49.134;9.212;2023-04-08T08:11:54;100396.25;;;9.68;72.64
49945;BME280;35838;49.134;9.212;2023-04-08T08:13:27;100395.34;;;9.63;71.50
49945;BME280;35838;49.134;9.212;2023-04-08T08:15:01;100391.81;;;9.52;70.21
49945;BME280;35838;49.134;9.212;2023-04-08T08:16:37;100390.91;;;9.47;71.37
49945;BME280;35838;49.134;9.212;2023-04-08T08:18:12;100401.41;;;9.65;71.47
49945;BME280;35838;49.134;9.212;2023-04-08T08:19:45;100393.72;;;9.78;71.14
49945;BME280;35838;49.134;9.212;2023-04-08T08:21:19;100395.59;;;9.97;71.54
49945;BME280;35838;49.134;9.212;2023-04-08T08:22:52;100400.84;;;10.13;71.30
49945;BME280;35838;49.134;9.212;2023-04-08T08:24:26;100392.28;;;10.23;69.85
49945;BME280;35838;49.134;9.212;2023-04-08T08:26:00;100393.22;;;10.38;68.11
49945;BME280;35838;49.134;9.212;2023-04-08T08:27:33;100389.78;;;10.45;67.97
49945;BME280;35838;49.134;9.212;2023-04-08T08:29:09;100387.94;;;10.24;67.47
49945;BME280;35838;49.134;9.212;2023-04-08T08:30:43;100389.69;;;10.28;66.66
49945;BME280;35838;49.134;9.212;2023-04-08T08:32:19;100390.56;;;10.31;67.38
49945;BME280;35838;49.134;9.212;2023-04-08T08:33:53;100390.66;;;10.41;68.28
49945;BME280;35838;49.134;9.212;2023-04-08T08:35:26;100394.19;;;10.52;68.54
49945;BME280;35838;49.134;9.212;2023-04-08T08:37:00;100390.75;;;10.58;67.23
49945;BME280;35838;49.134;9.212;2023-04-08T08:38:34;100386.41;;;10.57;65.94
49945;BME280;35838;49.134;9.212;2023-04-08T08:40:08;100387.28;;;10.60;66.97
49945;BME280;35838;49.134;9.212;2023-04-08T08:41:41;100387.25;;;10.53;66.33
49945;BME280;35838;49.134;9.212;2023-04-08T08:43:15;100389.00;;;10.64;66.28
49945;BME280;35838;49.134;9.212;2023-04-08T08:44:49;100395.09;;;10.71;66.77
49945;BME280;35838;49.134;9.212;2023-04-08T08:46:23;100397.72;;;10.80;66.81
49945;BME280;35838;49.134;9.212;2023-04-08T08:47:59;100395.06;;;10.63;63.99
49945;BME280;35838;49.134;9.212;2023-04-08T08:49:33;100384.63;;;10.54;62.19
49945;BME280;35838;49.134;9.212;2023-04-08T08:51:07;100388.00;;;10.34;62.05
49945;BME280;35838;49.134;9.212;2023-04-08T08:52:46;100388.97;;;10.47;62.64
49945;BME280;35838;49.134;9.212;2023-04-08T08:54:20;100396.81;;;10.69;63.00
49945;BME280;35838;49.134;9.212;2023-04-08T08:55:53;100397.69;;;10.66;61.93
49945;BME280;35838;49.134;9.212;2023-04-08T08:57:27;100394.16;;;10.55;59.26
49945;BME280;35838;49.134;9.212;2023-04-08T08:59:01;100387.25;;;10.51;60.14
49945;BME280;35838;49.134;9.212;2023-04-08T09:00:35;100405.41;;;10.51;61.24
49945;BME280;35838;49.134;9.212;2023-04-08T09:02:19;100396.75;;;10.49;61.27
49945;BME280;35838;49.134;9.212;2023-04-08T09:04:10;100401.13;;;10.64;60.90
49945;BME280;35838;49.134;9.212;2023-04-08T09:05:46;100391.56;;;10.55;58.37
49945;BME280;35838;49.134;9.212;2023-04-08T09:07:22;100400.28;;;10.70;59.00
49945;BME280;35838;49.134;9.212;2023-04-08T09:08:57;100394.25;;;10.71;57.97
49945;BME280;35838;49.134;9.212;2023-04-08T09:10:32;100395.94;;;10.65;57.42
49945;BME280;35838;49.134;9.212;2023-04-08T09:12:05;100396.81;;;10.74;57.97
49945;BME280;35838;49.134;9.212;2023-04-08T09:13:39;100400.34;;;10.85;57.06
49945;BME280;35838;49.134;9.212;2023-04-08T09:15:13;100388.22;;;10.95;56.41
49945;BME280;35838;49.134;9.212;2023-04-08T09:16:46;100396.03;;;10.96;55.37
49945;BME280;35838;49.134;9.212;2023-04-08T09:18:20;100390.84;;;11.03;54.71
49945;BME280;35838;49.134;9.212;2023-04-08T09:20:09;100397.78;;;10.93;52.76
49945;BME280;35838;49.134;9.212;2023-04-08T09:21:44;100399.50;;;11.08;53.05
49945;BME280;35838;49.134;9.212;2023-04-08T09:23:23;100394.34;;;11.14;52.39
49945;BME280;35838;49.134;9.212;2023-04-08T09:24:56;100392.53;;;10.79;50.53
49945;BME280;35838;49.134;9.212;2023-04-08T09:26:30;100397.72;;;10.76;50.89
49945;BME280;35838;49.134;9.212;2023-04-08T09:28:04;100395.06;;;10.68;51.23
49945;BME280;35838;49.134;9.212;2023-04-08T09:29:50;100388.22;;;10.90;52.88
49945;BME280;35838;49.134;9.212;2023-04-08T09:31:25;100395.16;;;11.07;53.77
49945;BME280;35838;49.134;9.212;2023-04-08T09:32:58;100393.44;;;10.93;51.75
49945;BME280;35838;49.134;9.212;2023-04-08T09:34:36;100390.75;;;10.65;52.09
49945;BME280;35838;49.134;9.212;2023-04-08T09:36:13;100386.41;;;10.64;52.35
49945;BME280;35838;49.134;9.212;2023-04-08T09:37:47;100399.44;;;10.83;53.29
49945;BME280;35838;49.134;9.212;2023-04-08T09:39:21;100384.75;;;10.85;52.29
49945;BME280;35838;49.134;9.212;2023-04-08T09:40:54;100386.50;;;11.03;52.20
49945;BME280;35838;49.134;9.212;2023-04-08T09:42:28;100391.75;;;11.16;52.38
49945;BME280;35838;49.134;9.212;2023-04-08T09:44:03;100396.94;;;11.19;51.29
49945;BME280;35838;49.134;9.212;2023-04-08T09:45:37;100386.56;;;11.25;51.02
49945;BME280;35838;49.134;9.212;2023-04-08T09:47:15;100391.75;;;11.39;51.88
49945;BME280;35838;49.134;9.212;2023-04-08T09:48:55;100387.41;;;11.35;51.73
49945;BME280;35838;49.134;9.212;2023-04-08T09:50:31;100385.69;;;11.37;50.46
49945;BME280;35838;49.134;9.212;2023-04-08T09:52:09;100393.47;;;11.13;51.50
49945;BME280;35838;49.134;9.212;2023-04-08T09:53:45;100393.44;;;11.01;52.27
49945;BME280;35838;49.134;9.212;2023-04-08T09:55:20;100394.31;;;11.11;53.65
49945;BME280;35838;49.134;9.212;2023-04-08T09:56:57;100394.28;;;10.98;53.50
49945;BME280;35838;49.134;9.212;2023-04-08T09:58:35;100401.22;;;11.04;53.84
49945;BME280;35838;49.134;9.212;2023-04-08T10:00:13;100392.59;;;11.16;53.49
49945;BME280;35838;49.134;9.212;2023-04-08T10:01:49;100386.53;;;11.31;54.24
49945;BME280;35838;49.134;9.212;2023-04-08T10:03:26;100390.00;;;11.53;54.18
49945;BME280;35838;49.134;9.212;2023-04-08T10:05:02;100398.69;;;11.60;53.52
49945;BME280;35838;49.134;9.212;2023-04-08T10:06:37;100391.75;;;11.67;53.63
49945;BME280;35838;49.134;9.212;2023-04-08T10:08:13;100393.47;;;11.69;52.51
49945;BME280;35838;49.134;9.212;2023-04-08T10:09:47;100396.06;;;11.71;52.65
49945;BME280;35838;49.134;9.212;2023-04-08T10:11:21;100396.09;;;11.55;52.53
49945;BME280;35838;49.134;9.212;2023-04-08T10:12:54;100395.22;;;11.50;51.51
49945;BME280;35838;49.134;9.212;2023-04-08T10:14:28;100390.00;;;11.53;53.22
49945;BME280;35838;49.134;9.212;2023-04-08T10:19:51;100387.41;;;11.59;53.60
49945;BME280;35838;49.134;9.212;2023-04-08T10:21:34;100390.88;;;11.65;54.23
49945;BME280;35838;49.134;9.212;2023-04-08T10:23:09;100390.88;;;11.65;54.56
49945;BME280;35838;49.134;9.212;2023-04-08T10:24:49;100393.50;;;11.49;53.65
49945;BME280;35838;49.134;9.212;2023-04-08T10:26:43;100392.63;;;11.22;53.15
49945;BME280;35838;49.134;9.212;2023-04-08T10:28:24;100386.53;;;11.31;53.74
49945;BME280;35838;49.134;9.212;2023-04-08T10:29:59;100388.28;;;11.27;53.71
49945;BME280;35838;49.134;9.212;2023-04-08T10:31:38;100386.53;;;11.22;53.62
49945;BME280;35838;49.134;9.212;2023-04-08T10:33:14;100387.44;;;11.32;53.40
49945;BME280;35838;49.134;9.212;2023-04-08T10:34:51;100393.50;;;11.40;55.39
49945;BME280;35838;49.134;9.212;2023-04-08T10:36:25;100390.91;;;11.44;55.67
49945;BME280;35838;49.134;9.212;2023-04-08T10:37:59;100395.22;;;11.49;55.23
49945;BME280;35838;49.134;9.212;2023-04-08T10:39:33;100389.16;;;11.45;54.94
49945;BME280;35838;49.134;9.212;2023-04-08T10:41:11;100397.81;;;11.47;54.61
49945;BME280;35838;49.134;9.212;2023-04-08T10:42:53;100394.38;;;11.33;55.00
49945;BME280;35838;49.134;9.212;2023-04-08T10:44:26;100401.28;;;11.37;54.82
49945;BME280;35838;49.134;9.212;2023-04-08T10:46:00;100403.00;;;11.28;54.15
49945;BME280;35838;49.134;9.212;2023-04-08T10:47:34;100403.88;;;11.34;54.64
49945;BME280;35838;49.134;9.212;2023-04-08T10:49:08;100399.56;;;11.34;54.72
49945;BME280;35838;49.134;9.212;2023-04-08T10:50:41;100396.09;;;11.35;54.56
49945;BME280;35838;49.134;9.212;2023-04-08T10:52:15;100399.53;;;11.36;55.67
49945;BME280;35838;49.134;9.212;2023-04-08T10:53:49;100399.53;;;11.36;55.61
49945;BME280;35838;49.134;9.212;2023-04-08T10:55:23;100398.66;;;11.27;53.83
49945;BME280;35838;49.134;9.212;2023-04-08T10:57:00;100395.19;;;11.25;53.58
49945;BME280;35838;49.134;9.212;2023-04-08T10:58:34;100397.78;;;11.25;54.02
49945;BME280;35838;49.134;9.212;2023-04-08T11:00:09;100403.88;;;11.31;54.39
49945;BME280;35838;49.134;9.212;2023-04-08T11:01:43;100401.28;;;11.27;54.62
49945;BME280;35838;49.134;9.212;2023-04-08T11:03:17;100404.72;;;11.26;54.26
49945;BME280;35838;49.134;9.212;2023-04-08T11:04:52;100405.56;;;11.11;54.16
49945;BME280;35838;49.134;9.212;2023-04-08T11:06:27;100412.50;;;11.12;54.76
49945;BME280;35838;49.134;9.212;2023-04-08T11:08:01;100401.25;;;11.18;55.38
49945;BME280;35838;49.134;9.212;2023-04-08T11:09:35;100396.94;;;11.23;55.68
49945;BME280;35838;49.134;9.212;2023-04-08T11:11:10;100393.47;;;11.21;55.85
49945;BME280;35838;49.134;9.212;2023-04-08T11:12:47;100396.06;;;11.24;54.78
49945;BME280;35838;49.134;9.212;2023-04-08T11:14:22;100394.31;;;11.11;54.06
49945;BME280;35838;49.134;9.212;2023-04-08T11:15:56;100392.56;;;11.11;54.28
49945;BME280;35838;49.134;9.212;2023-04-08T11:17:33;100399.53;;;11.17;54.55
49945;BME280;35838;49.134;9.212;2023-04-08T11:19:07;100403.00;;;11.22;55.89
49945;BME280;35838;49.134;9.212;2023-04-08T11:20:41;100401.28;;;11.26;56.79
49945;BME280;35838;49.134;9.212;2023-04-08T11:22:16;100391.72;;;11.22;56.48
49945;BME280;35838;49.134;9.212;2023-04-08T11:23:49;100393.47;;;11.24;56.16
49945;BME280;35838;49.134;9.212;2023-04-08T11:25:23;100399.53;;;11.25;55.77
49945;BME280;35838;49.134;9.212;2023-04-08T11:26:57;100395.19;;;11.19;55.89
49945;BME280;35838;49.134;9.212;2023-04-08T11:28:34;100393.47;;;11.27;56.17
49945;BME280;35838;49.134;9.212;2023-04-08T11:30:09;100392.63;;;11.36;56.44
49945;BME280;35838;49.134;9.212;2023-04-08T11:31:42;100400.41;;;11.42;56.20
49945;BME280;35838;49.134;9.212;2023-04-08T11:33:16;100395.19;;;11.19;54.24
49945;BME280;35838;49.134;9.212;2023-04-08T11:34:51;100394.31;;;11.11;53.58
49945;BME280;35838;49.134;9.212;2023-04-08T11:36:27;100402.13;;;11.16;54.64
49945;BME280;35838;49.134;9.212;2023-04-08T11:38:03;100403.00;;;11.25;55.31
49945;BME280;35838;49.134;9.212;2023-04-08T11:39:39;100403.00;;;11.22;54.05
49945;BME280;35838;49.134;9.212;2023-04-08T11:41:14;100398.66;;;11.24;55.23
49945;BME280;35838;49.134;9.212;2023-04-08T11:42:48;100398.69;;;11.35;55.50
49945;BME280;35838;49.134;9.212;2023-04-08T11:44:31;100399.56;;;11.48;55.87
49945;BME280;35838;49.134;9.212;2023-04-08T11:46:08;100393.50;;;11.54;54.10
49945;BME280;35838;49.134;9.212;2023-04-08T11:47:43;100393.47;;;11.69;55.02
49945;BME280;35838;49.134;9.212;2023-04-08T11:49:16;100385.66;;;11.77;54.25
49945;BME280;35838;49.134;9.212;2023-04-08T11:51:01;100387.38;;;11.95;54.71
49945;BME280;35838;49.134;9.212;2023-04-08T11:52:41;100391.69;;;12.12;54.24
49945;BME280;35838;49.134;9.212;2023-04-08T11:54:24;100383.84;;;12.29;53.60
49945;BME280;35838;49.134;9.212;2023-04-08T11:56:05;100382.06;;;12.43;53.06
49945;BME280;35838;49.134;9.212;2023-04-08T11:57:47;100381.97;;;12.65;53.29
49945;BME280;35838;49.134;9.212;2023-04-08T11:59:21;100387.13;;;12.76;51.92
49945;BME280;35838;49.134;9.212;2023-04-08T12:00:57;100387.91;;;12.89;51.89
49945;BME280;35838;49.134;9.212;2023-04-08T12:02:31;100385.19;;;13.07;51.19
49945;BME280;35838;49.134;9.212;2023-04-08T12:04:05;100384.31;;;13.08;48.92
49945;BME280;35838;49.134;9.212;2023-04-08T12:05:39;100387.78;;;13.09;49.35
49945;BME280;35838;49.134;9.212;2023-04-08T12:07:13;100389.06;;;12.26;48.08
49945;BME280;35838;49.134;9.212;2023-04-08T12:08:47;100387.28;;;12.31;49.36
49945;BME280;35838;49.134;9.212;2023-04-08T12:10:20;100388.97;;;12.50;49.85
49945;BME280;35838;49.134;9.212;2023-04-08T12:11:54;100383.72;;;12.57;48.71
49945;BME280;35838;49.134;9.212;2023-04-08T12:13:28;100392.34;;;12.71;48.56
49945;BME280;35838;49.134;9.212;2023-04-08T12:15:02;100381.19;;;12.49;46.73
49945;BME280;35838;49.134;9.212;2023-04-08T12:16:38;100389.84;;;12.48;47.81
49945;BME280;35838;49.134;9.212;2023-04-08T12:18:12;100380.44;;;11.89;46.98
49945;BME280;35838;49.134;9.212;2023-04-08T12:19:46;100383.03;;;11.96;48.91
49945;BME280;35838;49.134;9.212;2023-04-08T12:21:19;100393.50;;;11.54;48.51
49945;BME280;35838;49.134;9.212;2023-04-08T12:22:53;100390.00;;;11.69;49.76
49945;BME280;35838;49.134;9.212;2023-04-08T12:24:26;100385.63;;;11.86;50.43
49945;BME280;35838;49.134;9.212;2023-04-08T12:26:00;100389.09;;;12.04;49.45
49945;BME280;35838;49.134;9.212;2023-04-08T12:27:34;100394.34;;;12.01;49.82
49945;BME280;35838;49.134;9.212;2023-04-08T12:29:07;100389.09;;;11.95;49.22
49945;BME280;35838;49.134;9.212;2023-04-08T12:30:41;100398.66;;;12.05;49.43
49945;BME280;35838;49.134;9.212;2023-04-08T12:32:19;100390.00;;;12.03;49.82
49945;BME280;35838;49.134;9.212;2023-04-08T12:33:53;100396.91;;;12.15;50.12
49945;BME280;35838;49.134;9.212;2023-04-08T12:35:27;100391.66;;;12.22;49.35
49945;BME280;35838;49.134;9.212;2023-04-08T12:37:00;100388.16;;;12.36;49.98
49945;BME280;35838;49.134;9.212;2023-04-08T12:38:34;100387.34;;;12.23;48.33
49945;BME280;35838;49.134;9.212;2023-04-08T12:40:08;100385.66;;;12.11;47.55
49945;BME280;35838;49.134;9.212;2023-04-08T12:41:42;100383.06;;;12.06;47.85
49945;BME280;35838;49.134;9.212;2023-04-08T12:43:16;100380.41;;;12.14;48.35
49945;BME280;35838;49.134;9.212;2023-04-08T12:44:49;100383.84;;;12.27;48.88
49945;BME280;35838;49.134;9.212;2023-04-08T12:46:23;100380.31;;;12.45;49.16
49945;BME280;35838;49.134;9.212;2023-04-08T12:48:00;100379.38;;;12.62;48.42
49945;BME280;35838;49.134;9.212;2023-04-08T12:49:34;100381.81;;;12.88;48.50
49945;BME280;35838;49.134;9.212;2023-04-08T12:51:07;100371.19;;;13.24;47.73
49945;BME280;35838;49.134;9.212;2023-04-08T12:52:42;100373.63;;;13.47;48.12
49945;BME280;35838;49.134;9.212;2023-04-08T12:54:16;100380.63;;;13.36;45.87
49945;BME280;35838;49.134;9.212;2023-04-08T12:55:49;100376.28;;;13.42;48.04
49945;BME280;35838;49.134;9.212;2023-04-08T12:57:26;100379.91;;;13.15;46.45
49945;BME280;35838;49.134;9.212;2023-04-08T12:59:01;100379.16;;;13.04;46.45